sensor_id;sensor_type;location;lat;lon;timestamp;P1;durP1;ratioP1;P2;durP2;ratioP2
53263;SDS011;39153;52.680;6.172;2022-11-14T00:02:17;54.80;;;24.67;;
53263;SDS011;39153;52.680;6.172;2022-11-14T00:04:46;54.90;;;22.65;;
53263;SDS011;39153;52.680;6.172;2022-11-14T00:07:13;49.63;;;21.98;;
53263;SDS011;39153;52.680;6.172;2022-11-14T00:09:38;50.67;;;22.20;;
53263;SDS011;39153;52.680;6.172;2022-11-14T00:12:07;48.78;;;21.08;;
53263;SDS011;39153;52.680;6.172;2022-11-14T00:14:33;48.45;;;23.27;;
53263;SDS011;39153;52.680;6.172;2022-11-14T00:16:59;52.63;;;23.17;;
53263;SDS011;39153;52.680;6.172;2022-11-14T00:19:25;53.25;;;23.02;;
53263;SDS011;39153;52.680;6.172;2022-11-14T00:21:51;55.17;;;22.83;;
53263;SDS011;39153;52.680;6.172;2022-11-14T00:24:17;51.88;;;23.48;;
53263;SDS011;39153;52.680;6.172;2022-11-14T00:26:43;45.92;;;21.35;;
53263;SDS011;39153;52.680;6.172;2022-11-14T00:29:10;53.00;;;23.38;;
53263;SDS011;39153;52.680;6.172;2022-11-14T00:31:36;49.38;;;22.35;;
53263;SDS011;39153;52.680;6.172;2022-11-14T00:34:02;48.90;;;21.45;;
53263;SDS011;39153;52.680;6.172;2022-11-14T00:36:28;54.97;;;22.92;;
53263;SDS011;39153;52.680;6.172;2022-11-14T00:38:53;56.10;;;22.48;;
53263;SDS011;39153;52.680;6.172;2022-11-14T00:41:19;59.58;;;23.75;;
53263;SDS011;39153;52.680;6.172;2022-11-14T00:43:45;52.45;;;22.38;;
53263;SDS011;39153;52.680;6.172;2022-11-14T00:46:11;56.58;;;23.35;;
53263;SDS011;39153;52.680;6.172;2022-11-14T00:48:37;58.08;;;24.13;;
53263;SDS011;39153;52.680;6.172;2022-11-14T00:51:03;57.85;;;23.65;;
53263;SDS011;39153;52.680;6.172;2022-11-14T00:53:28;54.28;;;23.25;;
53263;SDS011;39153;52.680;6.172;2022-11-14T00:55:54;55.38;;;23.38;;
53263;SDS011;39153;52.680;6.172;2022-11-14T00:58:20;58.95;;;25.30;;
53263;SDS011;39153;52.680;6.172;2022-11-14T01:00:46;61.67;;;25.08;;
53263;SDS011;39153;52.680;6.172;2022-11-14T01:03:12;55.72;;;24.67;;
53263;SDS011;39153;52.680;6.172;2022-11-14T01:05:41;64.57;;;26.27;;
53263;SDS011;39153;52.680;6.172;2022-11-14T01:08:08;57.05;;;24.55;;
53263;SDS011;39153;52.680;6.172;2022-11-14T01:10:37;61.03;;;25.58;;
53263;SDS011;39153;52.680;6.172;2022-11-14T01:13:07;62.70;;;26.02;;
53263;SDS011;39153;52.680;6.172;2022-11-14T01:15:37;61.80;;;26.80;;
53263;SDS011;39153;52.680;6.172;2022-11-14T01:18:04;62.17;;;26.80;;
53263;SDS011;39153;52.680;6.172;2022-11-14T01:20:29;56.50;;;25.02;;
53263;SDS011;39153;52.680;6.172;2022-11-14T01:22:55;62.35;;;28.10;;
53263;SDS011;39153;52.680;6.172;2022-11-14T01:25:21;62.42;;;28.05;;
53263;SDS011;39153;52.680;6.172;2022-11-14T01:27:46;66.97;;;29.83;;
53263;SDS011;39153;52.680;6.172;2022-11-14T01:30:12;63.70;;;27.58;;
53263;SDS011;39153;52.680;6.172;2022-11-14T01:32:38;64.25;;;28.60;;
53263;SDS011;39153;52.680;6.172;2022-11-14T01:35:04;69.05;;;29.33;;
53263;SDS011;39153;52.680;6.172;2022-11-14T01:37:29;67.10;;;29.05;;
53263;SDS011;39153;52.680;6.172;2022-11-14T01:39:55;64.88;;;27.35;;
53263;SDS011;39153;52.680;6.172;2022-11-14T01:42:21;64.82;;;28.55;;
53263;SDS011;39153;52.680;6.172;2022-11-14T01:44:48;72.35;;;29.65;;
53263;SDS011;39153;52.680;6.172;2022-11-14T01:47:23;68.38;;;31.10;;
53263;SDS011;39153;52.680;6.172;2022-11-14T01:49:53;69.18;;;30.15;;
53263;SDS011;39153;52.680;6.172;2022-11-14T01:52:30;70.20;;;28.58;;
53263;SDS011;39153;52.680;6.172;2022-11-14T01:55:00;71.38;;;28.88;;
53263;SDS011;39153;52.680;6.172;2022-11-14T01:57:30;68.07;;;30.55;;
53263;SDS011;39153;52.680;6.172;2022-11-14T02:00:03;75.82;;;31.83;;
53263;SDS011;39153;52.680;6.172;2022-11-14T02:02:32;62.60;;;28.60;;
53263;SDS011;39153;52.680;6.172;2022-11-14T02:04:59;66.53;;;28.27;;
53263;SDS011;39153;52.680;6.172;2022-11-14T02:07:29;67.05;;;29.17;;
53263;SDS011;39153;52.680;6.172;2022-11-14T02:09:58;71.10;;;30.23;;
53263;SDS011;39153;52.680;6.172;2022-11-14T02:12:27;72.60;;;29.27;;
53263;SDS011;39153;52.680;6.172;2022-11-14T02:14:54;70.75;;;29.08;;
53263;SDS011;39153;52.680;6.172;2022-11-14T02:17:22;68.45;;;27.60;;
53263;SDS011;39153;52.680;6.172;2022-11-14T02:19:53;64.90;;;27.73;;
53263;SDS011;39153;52.680;6.172;2022-11-14T02:22:21;75.43;;;29.13;;
53263;SDS011;39153;52.680;6.172;2022-11-14T02:24:47;72.15;;;29.25;;
53263;SDS011;39153;52.680;6.172;2022-11-14T02:27:13;72.25;;;30.05;;
53263;SDS011;39153;52.680;6.172;2022-11-14T02:29:40;65.25;;;28.85;;
53263;SDS011;39153;52.680;6.172;2022-11-14T02:32:06;71.30;;;29.35;;
53263;SDS011;39153;52.680;6.172;2022-11-14T02:34:32;70.20;;;29.42;;
53263;SDS011;39153;52.680;6.172;2022-11-14T02:36:57;66.22;;;28.55;;
53263;SDS011;39153;52.680;6.172;2022-11-14T02:39:23;68.78;;;29.17;;
53263;SDS011;39153;52.680;6.172;2022-11-14T02:41:49;73.55;;;28.70;;
53263;SDS011;39153;52.680;6.172;2022-11-14T02:44:15;68.78;;;28.80;;
53263;SDS011;39153;52.680;6.172;2022-11-14T02:46:41;65.68;;;29.48;;
53263;SDS011;39153;52.680;6.172;2022-11-14T02:49:07;79.30;;;30.17;;
53263;SDS011;39153;52.680;6.172;2022-11-14T02:51:32;73.35;;;28.73;;
53263;SDS011;39153;52.680;6.172;2022-11-14T02:53:58;71.95;;;30.15;;
53263;SDS011;39153;52.680;6.172;2022-11-14T02:56:24;69.22;;;28.35;;
53263;SDS011;39153;52.680;6.172;2022-11-14T02:58:49;76.72;;;31.25;;
53263;SDS011;39153;52.680;6.172;2022-11-14T03:01:15;71.07;;;30.52;;
53263;SDS011;39153;52.680;6.172;2022-11-14T03:03:40;79.47;;;30.35;;
53263;SDS011;39153;52.680;6.172;2022-11-14T03:06:06;69.75;;;29.92;;
53263;SDS011;39153;52.680;6.172;2022-11-14T03:08:32;78.82;;;29.70;;
53263;SDS011;39153;52.680;6.172;2022-11-14T03:11:04;83.45;;;31.10;;
53263;SDS011;39153;52.680;6.172;2022-11-14T03:13:31;83.57;;;32.58;;
53263;SDS011;39153;52.680;6.172;2022-11-14T03:15:57;74.00;;;29.63;;
53263;SDS011;39153;52.680;6.172;2022-11-14T03:18:28;78.35;;;29.40;;
53263;SDS011;39153;52.680;6.172;2022-11-14T03:20:54;75.88;;;28.67;;
53263;SDS011;39153;52.680;6.172;2022-11-14T03:23:19;81.57;;;30.55;;
53263;SDS011;39153;52.680;6.172;2022-11-14T03:25:45;75.60;;;28.30;;
53263;SDS011;39153;52.680;6.172;2022-11-14T03:28:11;75.05;;;30.20;;
53263;SDS011;39153;52.680;6.172;2022-11-14T03:30:36;75.32;;;28.95;;
53263;SDS011;39153;52.680;6.172;2022-11-14T03:33:02;76.53;;;30.83;;
53263;SDS011;39153;52.680;6.172;2022-11-14T03:35:28;72.45;;;29.98;;
53263;SDS011;39153;52.680;6.172;2022-11-14T03:37:53;82.57;;;32.10;;
53263;SDS011;39153;52.680;6.172;2022-11-14T03:40:19;75.97;;;30.23;;
53263;SDS011;39153;52.680;6.172;2022-11-14T03:42:44;82.43;;;32.67;;
53263;SDS011;39153;52.680;6.172;2022-11-14T03:45:10;86.25;;;34.13;;
53263;SDS011;39153;52.680;6.172;2022-11-14T03:47:36;75.95;;;31.73;;
53263;SDS011;39153;52.680;6.172;2022-11-14T03:50:02;87.60;;;33.45;;
53263;SDS011;39153;52.680;6.172;2022-11-14T03:52:28;84.53;;;33.17;;
53263;SDS011;39153;52.680;6.172;2022-11-14T03:54:53;81.10;;;33.53;;
53263;SDS011;39153;52.680;6.172;2022-11-14T03:57:19;85.43;;;34.03;;
53263;SDS011;39153;52.680;6.172;2022-11-14T03:59:44;81.30;;;33.22;;
53263;SDS011;39153;52.680;6.172;2022-11-14T04:02:10;84.55;;;32.90;;
53263;SDS011;39153;52.680;6.172;2022-11-14T04:04:36;81.65;;;31.63;;
53263;SDS011;39153;52.680;6.172;2022-11-14T04:07:02;89.57;;;34.20;;
53263;SDS011;39153;52.680;6.172;2022-11-14T04:09:27;88.50;;;32.78;;
53263;SDS011;39153;52.680;6.172;2022-11-14T04:11:53;93.28;;;34.72;;
53263;SDS011;39153;52.680;6.172;2022-11-14T04:14:19;86.47;;;33.28;;
53263;SDS011;39153;52.680;6.172;2022-11-14T04:16:44;81.72;;;33.25;;
53263;SDS011;39153;52.680;6.172;2022-11-14T04:19:10;83.63;;;32.72;;
53263;SDS011;39153;52.680;6.172;2022-11-14T04:21:36;90.35;;;33.85;;
53263;SDS011;39153;52.680;6.172;2022-11-14T04:24:01;88.53;;;33.75;;
53263;SDS011;39153;52.680;6.172;2022-11-14T04:26:27;81.47;;;33.25;;
53263;SDS011;39153;52.680;6.172;2022-11-14T04:28:53;88.25;;;34.20;;
53263;SDS011;39153;52.680;6.172;2022-11-14T04:31:19;88.95;;;35.40;;
53263;SDS011;39153;52.680;6.172;2022-11-14T04:33:44;83.93;;;33.72;;
53263;SDS011;39153;52.680;6.172;2022-11-14T04:36:10;81.22;;;33.22;;
53263;SDS011;39153;52.680;6.172;2022-11-14T04:38:36;83.25;;;32.78;;
53263;SDS011;39153;52.680;6.172;2022-11-14T04:41:03;84.18;;;32.20;;
53263;SDS011;39153;52.680;6.172;2022-11-14T04:43:29;85.70;;;33.67;;
53263;SDS011;39153;52.680;6.172;2022-11-14T04:45:55;74.88;;;29.70;;
53263;SDS011;39153;52.680;6.172;2022-11-14T04:48:20;75.90;;;31.75;;
53263;SDS011;39153;52.680;6.172;2022-11-14T04:50:46;87.40;;;32.38;;
53263;SDS011;39153;52.680;6.172;2022-11-14T04:53:12;85.68;;;33.85;;
53263;SDS011;39153;52.680;6.172;2022-11-14T04:55:37;84.78;;;32.75;;
53263;SDS011;39153;52.680;6.172;2022-11-14T04:58:03;86.63;;;32.08;;
53263;SDS011;39153;52.680;6.172;2022-11-14T05:00:28;93.90;;;34.45;;
53263;SDS011;39153;52.680;6.172;2022-11-14T05:02:54;95.40;;;35.80;;
53263;SDS011;39153;52.680;6.172;2022-11-14T05:05:23;103.07;;;36.17;;
53263;SDS011;39153;52.680;6.172;2022-11-14T05:07:48;102.55;;;36.70;;
53263;SDS011;39153;52.680;6.172;2022-11-14T05:10:14;99.07;;;36.55;;
53263;SDS011;39153;52.680;6.172;2022-11-14T05:12:40;95.65;;;37.70;;
53263;SDS011;39153;52.680;6.172;2022-11-14T05:15:06;87.07;;;35.05;;
53263;SDS011;39153;52.680;6.172;2022-11-14T05:17:32;94.95;;;34.63;;
53263;SDS011;39153;52.680;6.172;2022-11-14T05:19:58;100.75;;;35.55;;
53263;SDS011;39153;52.680;6.172;2022-11-14T05:22:23;94.80;;;36.13;;
53263;SDS011;39153;52.680;6.172;2022-11-14T05:24:49;89.60;;;35.38;;
53263;SDS011;39153;52.680;6.172;2022-11-14T05:27:14;94.82;;;34.53;;
53263;SDS011;39153;52.680;6.172;2022-11-14T05:29:40;97.65;;;37.30;;
53263;SDS011;39153;52.680;6.172;2022-11-14T05:32:06;94.43;;;36.67;;
53263;SDS011;39153;52.680;6.172;2022-11-14T05:34:31;105.03;;;39.05;;
53263;SDS011;39153;52.680;6.172;2022-11-14T05:36:57;96.30;;;37.42;;
53263;SDS011;39153;52.680;6.172;2022-11-14T05:39:23;100.63;;;37.30;;
53263;SDS011;39153;52.680;6.172;2022-11-14T05:41:48;118.32;;;41.35;;
53263;SDS011;39153;52.680;6.172;2022-11-14T05:44:14;101.53;;;37.45;;
53263;SDS011;39153;52.680;6.172;2022-11-14T05:46:39;99.47;;;37.17;;
53263;SDS011;39153;52.680;6.172;2022-11-14T05:49:05;108.88;;;37.20;;
53263;SDS011;39153;52.680;6.172;2022-11-14T05:51:31;99.22;;;40.65;;
53263;SDS011;39153;52.680;6.172;2022-11-14T05:53:56;101.30;;;38.55;;
53263;SDS011;39153;52.680;6.172;2022-11-14T05:56:22;95.55;;;38.17;;
53263;SDS011;39153;52.680;6.172;2022-11-14T05:58:48;102.72;;;39.35;;
53263;SDS011;39153;52.680;6.172;2022-11-14T06:01:15;102.45;;;38.10;;
53263;SDS011;39153;52.680;6.172;2022-11-14T06:03:43;101.57;;;37.80;;
53263;SDS011;39153;52.680;6.172;2022-11-14T06:06:13;107.70;;;37.70;;
53263;SDS011;39153;52.680;6.172;2022-11-14T06:08:40;101.63;;;36.95;;
53263;SDS011;39153;52.680;6.172;2022-11-14T06:11:11;115.30;;;39.80;;
53263;SDS011;39153;52.680;6.172;2022-11-14T06:13:39;101.40;;;36.83;;
53263;SDS011;39153;52.680;6.172;2022-11-14T06:16:06;107.68;;;39.00;;
53263;SDS011;39153;52.680;6.172;2022-11-14T06:18:35;101.88;;;38.15;;
53263;SDS011;39153;52.680;6.172;2022-11-14T06:21:02;98.18;;;37.00;;
53263;SDS011;39153;52.680;6.172;2022-11-14T06:23:34;104.03;;;37.70;;
53263;SDS011;39153;52.680;6.172;2022-11-14T06:26:00;99.72;;;37.22;;
53263;SDS011;39153;52.680;6.172;2022-11-14T06:28:28;102.80;;;37.58;;
53263;SDS011;39153;52.680;6.172;2022-11-14T06:31:00;107.15;;;39.15;;
53263;SDS011;39153;52.680;6.172;2022-11-14T06:33:27;102.73;;;35.87;;
53263;SDS011;39153;52.680;6.172;2022-11-14T06:35:57;95.45;;;36.67;;
53263;SDS011;39153;52.680;6.172;2022-11-14T06:38:26;104.32;;;37.55;;
53263;SDS011;39153;52.680;6.172;2022-11-14T06:41:10;103.25;;;37.35;;
53263;SDS011;39153;52.680;6.172;2022-11-14T06:43:40;93.60;;;36.15;;
53263;SDS011;39153;52.680;6.172;2022-11-14T06:46:09;94.97;;;35.92;;
53263;SDS011;39153;52.680;6.172;2022-11-14T06:48:36;98.70;;;36.33;;
53263;SDS011;39153;52.680;6.172;2022-11-14T06:51:03;95.88;;;35.38;;
53263;SDS011;39153;52.680;6.172;2022-11-14T06:53:30;92.78;;;34.35;;
53263;SDS011;39153;52.680;6.172;2022-11-14T06:55:58;102.95;;;37.28;;
53263;SDS011;39153;52.680;6.172;2022-11-14T06:58:33;103.75;;;38.00;;
53263;SDS011;39153;52.680;6.172;2022-11-14T07:01:10;90.03;;;34.47;;
53263;SDS011;39153;52.680;6.172;2022-11-14T07:03:38;87.90;;;33.08;;
53263;SDS011;39153;52.680;6.172;2022-11-14T07:06:05;101.35;;;36.15;;
53263;SDS011;39153;52.680;6.172;2022-11-14T07:08:31;97.47;;;35.42;;
53263;SDS011;39153;52.680;6.172;2022-11-14T07:11:04;88.95;;;33.90;;
53263;SDS011;39153;52.680;6.172;2022-11-14T07:13:47;92.22;;;32.90;;
53263;SDS011;39153;52.680;6.172;2022-11-14T07:16:13;97.95;;;35.97;;
53263;SDS011;39153;52.680;6.172;2022-11-14T07:18:39;88.43;;;32.20;;
53263;SDS011;39153;52.680;6.172;2022-11-14T07:21:05;95.68;;;34.90;;
53263;SDS011;39153;52.680;6.172;2022-11-14T07:23:32;91.45;;;34.28;;
53263;SDS011;39153;52.680;6.172;2022-11-14T07:26:02;93.38;;;34.55;;
53263;SDS011;39153;52.680;6.172;2022-11-14T07:28:35;97.88;;;34.70;;
53263;SDS011;39153;52.680;6.172;2022-11-14T07:31:03;100.20;;;35.95;;
53263;SDS011;39153;52.680;6.172;2022-11-14T07:33:30;95.50;;;34.92;;
53263;SDS011;39153;52.680;6.172;2022-11-14T07:35:56;98.03;;;35.40;;
53263;SDS011;39153;52.680;6.172;2022-11-14T07:38:22;98.85;;;35.55;;
53263;SDS011;39153;52.680;6.172;2022-11-14T07:40:54;94.10;;;35.08;;
53263;SDS011;39153;52.680;6.172;2022-11-14T07:43:30;87.95;;;34.05;;
53263;SDS011;39153;52.680;6.172;2022-11-14T07:45:59;94.53;;;34.53;;
53263;SDS011;39153;52.680;6.172;2022-11-14T07:48:29;90.30;;;32.88;;
53263;SDS011;39153;52.680;6.172;2022-11-14T07:51:02;86.97;;;32.70;;
53263;SDS011;39153;52.680;6.172;2022-11-14T07:53:29;88.28;;;33.60;;
53263;SDS011;39153;52.680;6.172;2022-11-14T07:55:56;88.07;;;31.80;;
53263;SDS011;39153;52.680;6.172;2022-11-14T07:58:25;87.35;;;31.27;;
53263;SDS011;39153;52.680;6.172;2022-11-14T08:00:51;80.72;;;32.33;;
53263;SDS011;39153;52.680;6.172;2022-11-14T08:03:17;89.40;;;33.47;;
53263;SDS011;39153;52.680;6.172;2022-11-14T08:05:43;88.65;;;32.15;;
53263;SDS011;39153;52.680;6.172;2022-11-14T08:08:09;82.07;;;32.55;;
53263;SDS011;39153;52.680;6.172;2022-11-14T08:10:34;84.13;;;30.45;;
53263;SDS011;39153;52.680;6.172;2022-11-14T08:13:01;90.10;;;33.03;;
53263;SDS011;39153;52.680;6.172;2022-11-14T08:15:29;76.25;;;29.77;;
53263;SDS011;39153;52.680;6.172;2022-11-14T08:17:58;79.00;;;31.25;;
53263;SDS011;39153;52.680;6.172;2022-11-14T08:20:25;79.38;;;31.90;;
53263;SDS011;39153;52.680;6.172;2022-11-14T08:23:04;78.72;;;31.25;;
53263;SDS011;39153;52.680;6.172;2022-11-14T08:25:31;79.13;;;31.90;;
53263;SDS011;39153;52.680;6.172;2022-11-14T08:27:57;77.30;;;30.92;;
53263;SDS011;39153;52.680;6.172;2022-11-14T08:30:23;73.55;;;29.67;;
53263;SDS011;39153;52.680;6.172;2022-11-14T08:32:49;83.70;;;31.42;;
53263;SDS011;39153;52.680;6.172;2022-11-14T08:35:15;76.38;;;30.40;;
53263;SDS011;39153;52.680;6.172;2022-11-14T08:37:41;72.88;;;30.08;;
53263;SDS011;39153;52.680;6.172;2022-11-14T08:40:07;77.00;;;30.05;;
53263;SDS011;39153;52.680;6.172;2022-11-14T08:42:33;74.07;;;29.27;;
53263;SDS011;39153;52.680;6.172;2022-11-14T08:44:58;68.55;;;28.92;;
53263;SDS011;39153;52.680;6.172;2022-11-14T08:47:24;69.63;;;30.67;;
53263;SDS011;39153;52.680;6.172;2022-11-14T08:49:50;74.95;;;30.98;;
53263;SDS011;39153;52.680;6.172;2022-11-14T08:52:15;65.65;;;28.40;;
53263;SDS011;39153;52.680;6.172;2022-11-14T08:54:41;73.60;;;28.48;;
53263;SDS011;39153;52.680;6.172;2022-11-14T08:57:06;70.55;;;30.63;;
53263;SDS011;39153;52.680;6.172;2022-11-14T08:59:32;72.65;;;29.65;;
53263;SDS011;39153;52.680;6.172;2022-11-14T09:01:58;66.57;;;27.45;;
53263;SDS011;39153;52.680;6.172;2022-11-14T09:04:24;65.45;;;28.50;;
53263;SDS011;39153;52.680;6.172;2022-11-14T09:06:50;62.63;;;27.20;;
53263;SDS011;39153;52.680;6.172;2022-11-14T09:09:16;63.10;;;28.15;;
53263;SDS011;39153;52.680;6.172;2022-11-14T09:11:41;65.35;;;29.23;;
53263;SDS011;39153;52.680;6.172;2022-11-14T09:14:07;61.85;;;26.70;;
53263;SDS011;39153;52.680;6.172;2022-11-14T09:16:33;60.65;;;26.73;;
53263;SDS011;39153;52.680;6.172;2022-11-14T09:18:59;62.83;;;27.92;;
53263;SDS011;39153;52.680;6.172;2022-11-14T09:21:25;64.32;;;27.98;;
53263;SDS011;39153;52.680;6.172;2022-11-14T09:23:51;56.67;;;27.65;;
53263;SDS011;39153;52.680;6.172;2022-11-14T09:26:16;54.95;;;26.50;;
53263;SDS011;39153;52.680;6.172;2022-11-14T09:28:45;54.83;;;26.63;;
53263;SDS011;39153;52.680;6.172;2022-11-14T09:31:11;56.47;;;26.33;;
53263;SDS011;39153;52.680;6.172;2022-11-14T09:33:38;52.47;;;26.05;;
53263;SDS011;39153;52.680;6.172;2022-11-14T09:36:05;55.08;;;26.98;;
53263;SDS011;39153;52.680;6.172;2022-11-14T09:38:32;59.08;;;25.58;;
53263;SDS011;39153;52.680;6.172;2022-11-14T09:48:47;53.50;;;25.85;;
53263;SDS011;39153;52.680;6.172;2022-11-14T09:51:20;47.35;;;24.20;;
53263;SDS011;39153;52.680;6.172;2022-11-14T09:56:47;50.58;;;25.48;;
53263;SDS011;39153;52.680;6.172;2022-11-14T09:59:13;49.63;;;25.33;;
53263;SDS011;39153;52.680;6.172;2022-11-14T10:07:37;46.80;;;23.85;;
53263;SDS011;39153;52.680;6.172;2022-11-14T10:16:09;45.10;;;24.27;;
53263;SDS011;39153;52.680;6.172;2022-11-14T10:27:01;36.90;;;23.83;;
53263;SDS011;39153;52.680;6.172;2022-11-14T10:34:38;40.50;;;24.30;;
53263;SDS011;39153;52.680;6.172;2022-11-14T10:37:16;39.55;;;23.52;;
53263;SDS011;39153;52.680;6.172;2022-11-14T10:39:50;37.83;;;23.15;;
53263;SDS011;39153;52.680;6.172;2022-11-14T10:42:21;38.28;;;22.27;;
53263;SDS011;39153;52.680;6.172;2022-11-14T10:47:54;37.08;;;22.33;;
53263;SDS011;39153;52.680;6.172;2022-11-14T10:53:49;38.17;;;22.33;;
53263;SDS011;39153;52.680;6.172;2022-11-14T10:56:19;36.20;;;22.43;;
53263;SDS011;39153;52.680;6.172;2022-11-14T10:58:45;37.88;;;23.02;;
53263;SDS011;39153;52.680;6.172;2022-11-14T11:04:00;40.13;;;23.48;;
53263;SDS011;39153;52.680;6.172;2022-11-14T11:09:33;35.88;;;20.92;;
53263;SDS011;39153;52.680;6.172;2022-11-14T11:12:20;33.22;;;20.95;;
53263;SDS011;39153;52.680;6.172;2022-11-14T11:14:48;34.53;;;21.45;;
53263;SDS011;39153;52.680;6.172;2022-11-14T11:17:35;33.25;;;21.13;;
53263;SDS011;39153;52.680;6.172;2022-11-14T11:23:15;32.38;;;19.33;;
53263;SDS011;39153;52.680;6.172;2022-11-14T11:25:43;33.65;;;20.02;;
53263;SDS011;39153;52.680;6.172;2022-11-14T11:30:37;31.77;;;20.55;;
53263;SDS011;39153;52.680;6.172;2022-11-14T11:33:13;31.45;;;20.17;;
53263;SDS011;39153;52.680;6.172;2022-11-14T11:35:45;30.85;;;20.30;;
53263;SDS011;39153;52.680;6.172;2022-11-14T11:38:14;29.02;;;20.33;;
53263;SDS011;39153;52.680;6.172;2022-11-14T11:40:42;31.27;;;20.40;;
53263;SDS011;39153;52.680;6.172;2022-11-14T11:43:23;32.10;;;20.00;;
53263;SDS011;39153;52.680;6.172;2022-11-14T11:46:00;28.65;;;19.55;;
53263;SDS011;39153;52.680;6.172;2022-11-14T11:48:36;30.70;;;20.20;;
53263;SDS011;39153;52.680;6.172;2022-11-14T11:51:03;30.42;;;21.10;;
53263;SDS011;39153;52.680;6.172;2022-11-14T11:53:31;30.50;;;20.70;;
53263;SDS011;39153;52.680;6.172;2022-11-14T11:56:13;30.85;;;19.45;;
53263;SDS011;39153;52.680;6.172;2022-11-14T12:01:13;32.17;;;21.20;;
53263;SDS011;39153;52.680;6.172;2022-11-14T12:03:41;29.20;;;19.98;;
53263;SDS011;39153;52.680;6.172;2022-11-14T12:06:16;29.30;;;22.58;;
53263;SDS011;39153;52.680;6.172;2022-11-14T12:11:35;27.15;;;21.42;;
53263;SDS011;39153;52.680;6.172;2022-11-14T12:22:01;26.42;;;20.00;;
53263;SDS011;39153;52.680;6.172;2022-11-14T12:30:22;26.83;;;20.70;;
53263;SDS011;39153;52.680;6.172;2022-11-14T12:32:59;28.48;;;20.75;;
53263;SDS011;39153;52.680;6.172;2022-11-14T12:35:30;26.73;;;20.73;;
53263;SDS011;39153;52.680;6.172;2022-11-14T12:38:04;25.42;;;20.08;;
53263;SDS011;39153;52.680;6.172;2022-11-14T12:40:39;26.80;;;19.92;;
53263;SDS011;39153;52.680;6.172;2022-11-14T12:46:07;23.35;;;19.35;;
53263;SDS011;39153;52.680;6.172;2022-11-14T12:53:48;24.83;;;18.63;;
53263;SDS011;39153;52.680;6.172;2022-11-14T12:56:24;21.77;;;17.65;;
53263;SDS011;39153;52.680;6.172;2022-11-14T13:01:44;21.33;;;17.20;;
53263;SDS011;39153;52.680;6.172;2022-11-14T13:06:49;23.58;;;17.88;;
53263;SDS011;39153;52.680;6.172;2022-11-14T13:12:30;21.05;;;17.33;;
53263;SDS011;39153;52.680;6.172;2022-11-14T13:15:31;21.45;;;17.20;;
53263;SDS011;39153;52.680;6.172;2022-11-14T13:18:22;23.00;;;17.55;;
53263;SDS011;39153;52.680;6.172;2022-11-14T13:21:24;23.42;;;17.77;;
53263;SDS011;39153;52.680;6.172;2022-11-14T13:24:12;22.38;;;16.60;;
53263;SDS011;39153;52.680;6.172;2022-11-14T13:26:41;21.60;;;17.90;;
53263;SDS011;39153;52.680;6.172;2022-11-14T13:32:08;21.88;;;18.05;;
53263;SDS011;39153;52.680;6.172;2022-11-14T13:34:39;22.33;;;15.77;;
53263;SDS011;39153;52.680;6.172;2022-11-14T13:40:22;21.88;;;16.20;;
53263;SDS011;39153;52.680;6.172;2022-11-14T13:42:54;21.50;;;18.13;;
53263;SDS011;39153;52.680;6.172;2022-11-14T13:45:47;23.70;;;15.65;;
53263;SDS011;39153;52.680;6.172;2022-11-14T13:51:08;24.15;;;17.40;;
53263;SDS011;39153;52.680;6.172;2022-11-14T13:53:37;24.25;;;17.60;;
53263;SDS011;39153;52.680;6.172;2022-11-14T14:15:45;22.48;;;15.35;;
53263;SDS011;39153;52.680;6.172;2022-11-14T14:20:57;23.23;;;16.52;;
53263;SDS011;39153;52.680;6.172;2022-11-14T14:31:37;26.15;;;16.27;;
53263;SDS011;39153;52.680;6.172;2022-11-14T14:36:49;24.02;;;16.50;;
53263;SDS011;39153;52.680;6.172;2022-11-14T14:41:52;23.27;;;15.77;;
53263;SDS011;39153;52.680;6.172;2022-11-14T14:46:52;23.17;;;16.17;;
53263;SDS011;39153;52.680;6.172;2022-11-14T14:49:22;23.75;;;17.20;;
53263;SDS011;39153;52.680;6.172;2022-11-14T14:54:55;22.45;;;15.30;;
53263;SDS011;39153;52.680;6.172;2022-11-14T14:57:21;19.83;;;14.30;;
53263;SDS011;39153;52.680;6.172;2022-11-14T14:59:57;18.27;;;13.07;;
53263;SDS011;39153;52.680;6.172;2022-11-14T15:02:29;19.70;;;14.13;;
53263;SDS011;39153;52.680;6.172;2022-11-14T15:04:56;19.95;;;14.00;;
53263;SDS011;39153;52.680;6.172;2022-11-14T15:07:23;18.92;;;13.57;;
53263;SDS011;39153;52.680;6.172;2022-11-14T15:09:55;18.45;;;13.32;;
53263;SDS011;39153;52.680;6.172;2022-11-14T15:12:23;18.58;;;13.65;;
53263;SDS011;39153;52.680;6.172;2022-11-14T15:14:54;18.27;;;13.27;;
53263;SDS011;39153;52.680;6.172;2022-11-14T15:17:21;17.55;;;12.73;;
53263;SDS011;39153;52.680;6.172;2022-11-14T15:19:48;21.70;;;14.30;;
53263;SDS011;39153;52.680;6.172;2022-11-14T15:27:43;21.90;;;13.65;;
53263;SDS011;39153;52.680;6.172;2022-11-14T15:30:24;20.80;;;14.13;;
53263;SDS011;39153;52.680;6.172;2022-11-14T15:33:00;18.92;;;13.10;;
53263;SDS011;39153;52.680;6.172;2022-11-14T15:35:34;19.98;;;14.05;;
53263;SDS011;39153;52.680;6.172;2022-11-14T15:40:42;18.90;;;13.77;;
53263;SDS011;39153;52.680;6.172;2022-11-14T15:48:50;20.65;;;13.98;;
53263;SDS011;39153;52.680;6.172;2022-11-14T15:51:16;19.52;;;14.07;;
53263;SDS011;39153;52.680;6.172;2022-11-14T15:53:45;19.83;;;13.60;;
53263;SDS011;39153;52.680;6.172;2022-11-14T15:56:12;19.83;;;12.93;;
53263;SDS011;39153;52.680;6.172;2022-11-14T15:58:38;19.35;;;13.85;;
53263;SDS011;39153;52.680;6.172;2022-11-14T16:01:04;20.48;;;14.35;;
53263;SDS011;39153;52.680;6.172;2022-11-14T16:03:37;19.38;;;13.43;;
53263;SDS011;39153;52.680;6.172;2022-11-14T16:06:03;19.73;;;13.30;;
53263;SDS011;39153;52.680;6.172;2022-11-14T16:08:28;20.92;;;13.70;;
53263;SDS011;39153;52.680;6.172;2022-11-14T16:10:54;17.58;;;12.35;;
53263;SDS011;39153;52.680;6.172;2022-11-14T16:13:20;18.92;;;13.10;;
53263;SDS011;39153;52.680;6.172;2022-11-14T16:15:45;18.58;;;13.05;;
53263;SDS011;39153;52.680;6.172;2022-11-14T16:18:11;19.08;;;12.98;;
53263;SDS011;39153;52.680;6.172;2022-11-14T16:20:37;20.73;;;13.32;;
53263;SDS011;39153;52.680;6.172;2022-11-14T16:23:03;18.70;;;13.60;;
53263;SDS011;39153;52.680;6.172;2022-11-14T16:25:29;17.23;;;13.00;;
53263;SDS011;39153;52.680;6.172;2022-11-14T16:27:55;19.75;;;13.02;;
53263;SDS011;39153;52.680;6.172;2022-11-14T16:30:22;20.42;;;13.15;;
53263;SDS011;39153;52.680;6.172;2022-11-14T16:32:49;20.50;;;13.68;;
53263;SDS011;39153;52.680;6.172;2022-11-14T16:35:20;23.45;;;14.50;;
53263;SDS011;39153;52.680;6.172;2022-11-14T16:37:48;21.67;;;14.50;;
53263;SDS011;39153;52.680;6.172;2022-11-14T16:40:15;22.10;;;14.63;;
53263;SDS011;39153;52.680;6.172;2022-11-14T16:42:47;22.73;;;13.95;;
53263;SDS011;39153;52.680;6.172;2022-11-14T16:45:17;19.95;;;13.15;;
53263;SDS011;39153;52.680;6.172;2022-11-14T16:47:44;19.55;;;13.48;;
53263;SDS011;39153;52.680;6.172;2022-11-14T16:50:10;19.10;;;12.80;;
53263;SDS011;39153;52.680;6.172;2022-11-14T16:52:36;17.27;;;12.38;;
53263;SDS011;39153;52.680;6.172;2022-11-14T16:55:06;18.50;;;12.20;;
53263;SDS011;39153;52.680;6.172;2022-11-14T16:57:33;17.38;;;12.52;;
53263;SDS011;39153;52.680;6.172;2022-11-14T17:00:01;19.90;;;13.50;;
53263;SDS011;39153;52.680;6.172;2022-11-14T17:02:31;17.55;;;12.32;;